Time;durP1;ratioP1;P1;durP2;ratioP2;P2;SDS_P1;SDS_P2;PMS_P1;PMS_P2;Temp;Humidity;BMP_temperature;BMP_pressure;BME280_temperature;BME280_humidity;BME280_pressure;Samples;Min_cycle;Max_cycle;Signal;HPM_P1;HPM_P2
2023/12/13 00:01:48;;;;;;;15.07;10.70;;;;;;;;;;758542;182;918382;-70
2023/12/13 00:04:14;;;;;;;17.23;9.87;;;;;;;;;;770078;179;882795;-69
2023/12/13 00:06:40;;;;;;;18.30;11.27;;;;;;;;;;770948;179;918467;-70
2023/12/13 00:09:08;;;;;;;15.33;10.23;;;;;;;;;;775181;178;814335;-61
2023/12/13 00:11:34;;;;;;;17.40;9.23;;;;;;;;;;773324;180;879405;-62
2023/12/13 00:14:00;;;;;;;16.50;9.33;;;;;;;;;;778530;179;787619;-69
2023/12/13 00:16:26;;;;;;;17.60;9.90;;;;;;;;;;773019;178;919192;-61
2023/12/13 00:18:52;;;;;;;13.83;8.20;;;;;;;;;;770689;180;916526;-61
2023/12/13 00:21:18;;;;;;;14.33;8.50;;;;;;;;;;777633;180;918348;-62
2023/12/13 00:23:45;;;;;;;18.87;9.53;;;;;;;;;;771488;178;911253;-61
2023/12/13 00:26:12;;;;;;;18.70;10.00;;;;;;;;;;772815;181;920085;-62
2023/12/13 00:28:38;;;;;;;13.13;8.53;;;;;;;;;;771608;180;908911;-62
2023/12/13 00:31:04;;;;;;;12.70;8.30;;;;;;;;;;775941;179;919437;-62
2023/12/13 00:33:30;;;;;;;13.70;8.83;;;;;;;;;;773921;180;918112;-70
2023/12/13 00:35:56;;;;;;;19.95;10.85;;;;;;;;;;770744;180;914569;-69
2023/12/13 00:38:22;;;;;;;11.73;6.80;;;;;;;;;;778031;180;913665;-62
2023/12/13 00:40:48;;;;;;;12.17;7.03;;;;;;;;;;773879;180;919136;-62
2023/12/13 00:43:13;;;;;;;13.60;7.87;;;;;;;;;;773300;178;818600;-70
2023/12/13 00:45:39;;;;;;;8.80;6.23;;;;;;;;;;778164;180;847392;-69
2023/12/13 00:48:05;;;;;;;13.70;6.40;;;;;;;;;;764836;180;919414;-63
2023/12/13 00:50:32;;;;;;;13.40;7.27;;;;;;;;;;767785;179;920900;-69
2023/12/13 00:52:57;;;;;;;15.97;9.90;;;;;;;;;;773938;180;918971;-62
2023/12/13 00:55:23;;;;;;;11.90;8.30;;;;;;;;;;768730;180;917907;-63
2023/12/13 00:57:48;;;;;;;17.60;9.80;;;;;;;;;;774062;180;919119;-62
2023/12/13 01:00:15;;;;;;;21.20;8.50;;;;;;;;;;773045;177;906994;-62
2023/12/13 01:02:40;;;;;;;19.00;9.40;;;;;;;;;;777737;180;919091;-62
2023/12/13 01:05:07;;;;;;;19.93;8.73;;;;;;;;;;774523;177;919405;-70
2023/12/13 01:07:33;;;;;;;12.27;5.87;;;;;;;;;;757647;183;917143;-62
2023/12/13 01:09:58;;;;;;;12.30;7.30;;;;;;;;;;774141;181;858036;-70
2023/12/13 01:12:24;;;;;;;9.43;6.00;;;;;;;;;;772997;180;880207;-70
2023/12/13 01:14:50;;;;;;;12.53;6.10;;;;;;;;;;772769;178;914874;-69
2023/12/13 01:17:16;;;;;;;12.40;6.00;;;;;;;;;;773180;180;918383;-68
2023/12/13 01:19:42;;;;;;;10.40;4.70;;;;;;;;;;772614;180;918100;-69
2023/12/13 01:22:08;;;;;;;11.10;4.30;;;;;;;;;;770826;179;917685;-63
2023/12/13 01:24:33;;;;;;;16.05;5.40;;;;;;;;;;769456;178;914539;-63
2023/12/13 01:26:59;;;;;;;14.80;6.17;;;;;;;;;;776262;178;815771;-63
2023/12/13 01:29:25;;;;;;;9.00;5.00;;;;;;;;;;771592;180;919982;-68
2023/12/13 01:31:51;;;;;;;10.33;5.73;;;;;;;;;;771299;180;1003831;-69
2023/12/13 01:34:17;;;;;;;10.33;5.57;;;;;;;;;;777523;180;919742;-63
2023/12/13 01:36:43;;;;;;;14.60;6.63;;;;;;;;;;773948;180;918202;-68
2023/12/13 01:39:08;;;;;;;9.93;5.00;;;;;;;;;;772754;180;893808;-70
2023/12/13 01:41:34;;;;;;;6.67;4.73;;;;;;;;;;776058;180;906434;-63
2023/12/13 01:44:00;;;;;;;6.20;4.00;;;;;;;;;;771036;179;911959;-69
2023/12/13 01:46:26;;;;;;;14.07;5.67;;;;;;;;;;771099;178;917057;-64
2023/12/13 01:48:52;;;;;;;14.73;5.00;;;;;;;;;;771618;180;812083;-68
2023/12/13 01:51:18;;;;;;;11.80;4.87;;;;;;;;;;775570;180;918777;-63
2023/12/13 01:53:44;;;;;;;11.20;7.33;;;;;;;;;;770570;179;925598;-63
2023/12/13 01:56:10;;;;;;;9.57;5.22;;;;;;;;;;770843;179;920489;-62
2023/12/13 01:58:38;;;;;;;13.50;6.30;;;;;;;;;;764294;180;914576;-62
2023/12/13 02:01:04;;;;;;;21.23;6.50;;;;;;;;;;774700;180;919085;-70
2023/12/13 02:03:30;;;;;;;8.80;6.30;;;;;;;;;;774106;177;917513;-69
2023/12/13 02:05:56;;;;;;;11.70;5.70;;;;;;;;;;780246;177;863105;-62
2023/12/13 02:08:22;;;;;;;9.57;5.93;;;;;;;;;;774830;180;919059;-69
2023/12/13 02:10:47;;;;;;;11.50;5.70;;;;;;;;;;773059;180;919571;-69
2023/12/13 02:13:13;;;;;;;9.50;4.63;;;;;;;;;;771884;178;920745;-69
2023/12/13 02:15:39;;;;;;;7.83;4.97;;;;;;;;;;777883;180;919377;-63
2023/12/13 02:18:05;;;;;;;7.60;4.83;;;;;;;;;;773141;180;898133;-63
2023/12/13 02:20:31;;;;;;;14.67;5.93;;;;;;;;;;770946;180;927953;-69
2023/12/13 02:22:57;;;;;;;9.43;5.10;;;;;;;;;;778229;180;818288;-62
2023/12/13 02:25:22;;;;;;;11.07;5.00;;;;;;;;;;772941;180;919085;-62
2023/12/13 02:27:48;;;;;;;7.30;5.03;;;;;;;;;;772321;180;916885;-69
2023/12/13 02:30:14;;;;;;;7.50;4.33;;;;;;;;;;778391;180;912138;-69
2023/12/13 02:32:40;;;;;;;10.40;4.57;;;;;;;;;;772466;177;856145;-69
2023/12/13 02:35:06;;;;;;;6.77;4.00;;;;;;;;;;771182;178;821627;-69
2023/12/13 02:37:32;;;;;;;9.35;5.10;;;;;;;;;;763107;181;916508;-63
2023/12/13 02:39:58;;;;;;;9.60;4.87;;;;;;;;;;768949;180;917349;-70
2023/12/13 02:42:24;;;;;;;10.20;6.60;;;;;;;;;;770898;180;912949;-69
2023/12/13 02:44:49;;;;;;;10.40;5.03;;;;;;;;;;773197;177;844350;-69
2023/12/13 02:47:15;;;;;;;6.80;4.30;;;;;;;;;;778221;180;821326;-63
2023/12/13 02:49:41;;;;;;;6.00;3.40;;;;;;;;;;775770;178;819351;-62
2023/12/13 02:52:07;;;;;;;8.63;4.93;;;;;;;;;;772363;177;918775;-62
2023/12/13 02:54:33;;;;;;;16.40;7.50;;;;;;;;;;777219;179;911166;-62
2023/12/13 02:56:59;;;;;;;12.73;5.37;;;;;;;;;;772195;180;918839;-69
2023/12/13 02:59:25;;;;;;;12.23;5.90;;;;;;;;;;771534;180;918023;-69
2023/12/13 03:01:50;;;;;;;13.37;5.50;;;;;;;;;;777312;179;919169;-69
2023/12/13 03:04:16;;;;;;;16.50;7.83;;;;;;;;;;772408;180;843499;-62
2023/12/13 03:06:42;;;;;;;6.97;4.60;;;;;;;;;;769631;179;920197;-62
2023/12/13 03:09:08;;;;;;;8.33;4.67;;;;;;;;;;772045;180;883079;-68
2023/12/13 03:11:34;;;;;;;6.40;4.30;;;;;;;;;;781380;177;891991;-69
2023/12/13 03:14:00;;;;;;;7.03;4.30;;;;;;;;;;774179;180;919081;-70
2023/12/13 03:16:26;;;;;;;8.18;4.45;;;;;;;;;;772859;180;919415;-62
2023/12/13 03:18:51;;;;;;;9.43;4.77;;;;;;;;;;777170;178;921853;-68
2023/12/13 03:21:17;;;;;;;11.40;4.20;;;;;;;;;;773587;177;817412;-62
2023/12/13 03:23:43;;;;;;;11.50;5.10;;;;;;;;;;773688;180;817206;-62
2023/12/13 03:26:09;;;;;;;6.90;3.97;;;;;;;;;;777516;179;924891;-61
2023/12/13 03:28:35;;;;;;;9.60;4.73;;;;;;;;;;770011;180;919069;-69
2023/12/13 03:31:00;;;;;;;6.23;3.90;;;;;;;;;;759744;180;918943;-62
2023/12/13 03:33:26;;;;;;;11.35;5.25;;;;;;;;;;777097;180;815617;-62
2023/12/13 03:35:52;;;;;;;7.37;4.07;;;;;;;;;;771959;178;918381;-69
2023/12/13 03:38:18;;;;;;;8.87;4.17;;;;;;;;;;771332;180;919492;-62
2023/12/13 03:40:44;;;;;;;5.83;3.80;;;;;;;;;;774543;180;907566;-62
2023/12/13 03:43:10;;;;;;;9.00;3.43;;;;;;;;;;778468;180;916848;-61
2023/12/13 03:45:35;;;;;;;7.17;3.90;;;;;;;;;;774379;180;766872;-69
2023/12/13 03:48:01;;;;;;;11.13;4.10;;;;;;;;;;771221;180;919266;-62
2023/12/13 03:50:27;;;;;;;10.90;4.87;;;;;;;;;;777741;178;769835;-63
2023/12/13 03:52:53;;;;;;;6.37;3.50;;;;;;;;;;773676;180;815900;-69
2023/12/13 03:55:19;;;;;;;9.63;4.07;;;;;;;;;;771727;180;919247;-62
2023/12/13 03:57:45;;;;;;;8.63;3.90;;;;;;;;;;777310;180;919680;-69
2023/12/13 04:00:11;;;;;;;5.70;3.33;;;;;;;;;;771605;180;914500;-63
2023/12/13 04:02:37;;;;;;;5.93;3.80;;;;;;;;;;772966;179;884285;-62
2023/12/13 04:05:03;;;;;;;7.13;3.60;;;;;;;;;;772050;180;917648;-62
2023/12/13 04:07:28;;;;;;;5.70;4.50;;;;;;;;;;767958;180;918367;-62
2023/12/13 04:09:54;;;;;;;8.77;4.70;;;;;;;;;;767160;181;919466;-69
2023/12/13 04:12:20;;;;;;;9.90;4.70;;;;;;;;;;770340;180;920505;-68
2023/12/13 04:14:46;;;;;;;10.30;5.30;;;;;;;;;;778128;179;817084;-61
2023/12/13 04:17:12;;;;;;;11.30;6.80;;;;;;;;;;772264;180;919514;-68
2023/12/13 04:19:38;;;;;;;11.87;7.30;;;;;;;;;;774450;177;919281;-62
2023/12/13 04:22:03;;;;;;;11.37;5.20;;;;;;;;;;768486;178;816678;-69
2023/12/13 04:24:29;;;;;;;7.90;4.90;;;;;;;;;;768674;180;922110;-68
2023/12/13 04:26:55;;;;;;;10.27;5.10;;;;;;;;;;773680;178;916340;-69
2023/12/13 04:29:21;;;;;;;9.52;5.15;;;;;;;;;;779032;178;914155;-62
2023/12/13 04:31:47;;;;;;;10.17;4.83;;;;;;;;;;772984;178;919735;-69
2023/12/13 04:34:13;;;;;;;8.60;6.40;;;;;;;;;;763487;180;924014;-62
2023/12/13 04:36:38;;;;;;;9.63;5.15;;;;;;;;;;763323;181;918657;-62
2023/12/13 04:39:05;;;;;;;9.20;5.80;;;;;;;;;;777568;180;918784;-69
2023/12/13 04:41:32;;;;;;;12.00;5.23;;;;;;;;;;772599;180;920687;-63
2023/12/13 04:43:56;;;;;;;6.20;4.37;;;;;;;;;;772135;180;918343;-62
2023/12/13 04:46:22;;;;;;;8.53;4.87;;;;;;;;;;778360;180;917288;-68
2023/12/13 04:48:48;;;;;;;12.70;5.90;;;;;;;;;;771436;180;825899;-69
2023/12/13 04:51:13;;;;;;;8.98;6.18;;;;;;;;;;772280;180;936069;-62
2023/12/13 04:53:39;;;;;;;10.47;5.93;;;;;;;;;;777329;179;824067;-69
2023/12/13 04:56:05;;;;;;;8.60;5.50;;;;;;;;;;772154;180;813761;-62
2023/12/13 04:58:31;;;;;;;7.73;5.23;;;;;;;;;;770676;180;918947;-62
2023/12/13 05:00:57;;;;;;;9.67;5.40;;;;;;;;;;769605;180;1019220;-62
2023/12/13 05:03:23;;;;;;;9.83;5.70;;;;;;;;;;773189;180;841295;-69
2023/12/13 05:05:49;;;;;;;11.40;5.57;;;;;;;;;;762922;177;922193;-62
2023/12/13 05:08:15;;;;;;;8.30;5.57;;;;;;;;;;762833;181;921130;-62
2023/12/13 05:10:43;;;;;;;9.83;5.87;;;;;;;;;;778143;179;818340;-62
2023/12/13 05:13:07;;;;;;;12.10;5.53;;;;;;;;;;772164;180;919162;-69
2023/12/13 05:15:33;;;;;;;14.53;7.37;;;;;;;;;;773388;180;919834;-62
2023/12/13 05:17:58;;;;;;;12.30;5.83;;;;;;;;;;776035;180;920541;-62
2023/12/13 05:20:24;;;;;;;8.17;5.17;;;;;;;;;;771752;178;932494;-61
2023/12/13 05:22:50;;;;;;;8.07;4.80;;;;;;;;;;772017;180;852734;-61
2023/12/13 05:25:16;;;;;;;7.17;4.80;;;;;;;;;;776026;180;820833;-69
2023/12/13 05:27:44;;;;;;;14.90;6.97;;;;;;;;;;772925;180;822976;-69
2023/12/13 05:30:08;;;;;;;11.37;6.97;;;;;;;;;;775784;180;631475;-61
2023/12/13 05:32:34;;;;;;;8.33;6.53;;;;;;;;;;774885;180;630201;-69
2023/12/13 05:35:00;;;;;;;9.63;7.17;;;;;;;;;;782996;179;623997;-62
2023/12/13 05:37:26;;;;;;;10.90;6.30;;;;;;;;;;775780;180;926295;-61
2023/12/13 05:39:52;;;;;;;9.83;5.93;;;;;;;;;;773680;179;913529;-69
2023/12/13 05:42:18;;;;;;;11.75;6.72;;;;;;;;;;768820;180;824909;-62
2023/12/13 05:44:44;;;;;;;8.70;5.73;;;;;;;;;;769452;180;917225;-69
2023/12/13 05:47:09;;;;;;;6.37;4.83;;;;;;;;;;771645;180;918887;-69
2023/12/13 05:49:35;;;;;;;5.53;4.30;;;;;;;;;;777485;180;817935;-69
2023/12/13 05:52:01;;;;;;;9.83;4.37;;;;;;;;;;770298;180;921119;-62
2023/12/13 05:54:27;;;;;;;13.60;5.00;;;;;;;;;;775658;178;817980;-62
2023/12/13 05:56:53;;;;;;;9.00;5.40;;;;;;;;;;768125;179;920780;-62
2023/12/13 05:59:18;;;;;;;6.77;4.57;;;;;;;;;;763811;181;921033;-62
2023/12/13 06:01:44;;;;;;;10.20;6.43;;;;;;;;;;773021;180;914041;-69
2023/12/13 06:04:10;;;;;;;6.63;4.93;;;;;;;;;;773663;178;927886;-62
2023/12/13 06:06:36;;;;;;;13.23;6.70;;;;;;;;;;777166;180;919505;-61
2023/12/13 06:09:03;;;;;;;10.57;5.57;;;;;;;;;;770667;180;1021190;-68
2023/12/13 06:11:28;;;;;;;10.10;5.40;;;;;;;;;;772788;178;861294;-62
2023/12/13 06:13:54;;;;;;;8.73;6.00;;;;;;;;;;777750;180;819263;-62
2023/12/13 06:16:19;;;;;;;18.93;10.67;;;;;;;;;;772127;180;883346;-68
2023/12/13 06:18:45;;;;;;;7.60;5.43;;;;;;;;;;770189;178;914245;-62
2023/12/13 06:21:11;;;;;;;6.97;5.15;;;;;;;;;;772543;180;919691;-67
2023/12/13 06:23:37;;;;;;;5.97;4.13;;;;;;;;;;770032;180;921581;-63
2023/12/13 06:26:03;;;;;;;7.30;4.90;;;;;;;;;;769684;180;919477;-62
2023/12/13 06:28:29;;;;;;;11.17;4.40;;;;;;;;;;773367;180;813063;-69
2023/12/13 06:30:55;;;;;;;11.60;5.43;;;;;;;;;;779530;179;712535;-62
2023/12/13 06:33:21;;;;;;;17.42;10.73;;;;;;;;;;774275;180;814661;-68
2023/12/13 06:35:47;;;;;;;18.90;8.57;;;;;;;;;;773774;180;816567;-69
2023/12/13 06:38:13;;;;;;;13.93;8.27;;;;;;;;;;776954;180;918845;-69
2023/12/13 06:40:38;;;;;;;10.67;6.47;;;;;;;;;;775690;180;816739;-63
2023/12/13 06:43:05;;;;;;;12.10;8.60;;;;;;;;;;773945;180;844854;-63
2023/12/13 06:45:30;;;;;;;12.07;7.17;;;;;;;;;;778422;179;918747;-63
2023/12/13 06:47:56;;;;;;;12.43;7.03;;;;;;;;;;773290;180;919129;-69
2023/12/13 06:50:24;;;;;;;11.23;5.50;;;;;;;;;;771624;180;918517;-63
2023/12/13 06:52:48;;;;;;;8.48;6.60;;;;;;;;;;776186;180;927590;-69
2023/12/13 06:55:13;;;;;;;12.10;6.83;;;;;;;;;;778973;178;879786;-70
2023/12/13 06:57:39;;;;;;;16.30;8.43;;;;;;;;;;774194;180;919428;-63
2023/12/13 07:00:06;;;;;;;16.57;8.47;;;;;;;;;;774578;177;916639;-63
2023/12/13 07:02:31;;;;;;;14.67;10.60;;;;;;;;;;779583;177;717297;-69
2023/12/13 07:04:57;;;;;;;29.63;20.10;;;;;;;;;;773385;178;916558;-63
2023/12/13 07:07:23;;;;;;;29.27;18.20;;;;;;;;;;769647;180;951988;-63
2023/12/13 07:09:49;;;;;;;11.93;7.20;;;;;;;;;;778451;180;629770;-69
2023/12/13 07:12:15;;;;;;;14.80;9.90;;;;;;;;;;771850;180;912764;-63
2023/12/13 07:14:41;;;;;;;12.02;8.85;;;;;;;;;;759879;181;830599;-63
2023/12/13 07:17:06;;;;;;;14.30;10.10;;;;;;;;;;770439;178;921172;-64
2023/12/13 07:19:32;;;;;;;21.75;10.20;;;;;;;;;;779911;180;825230;-70
2023/12/13 07:21:58;;;;;;;18.97;11.17;;;;;;;;;;772401;180;918669;-63
2023/12/13 07:24:24;;;;;;;17.17;10.87;;;;;;;;;;771240;180;815122;-69
2023/12/13 07:26:50;;;;;;;22.60;11.87;;;;;;;;;;777498;180;814903;-63
2023/12/13 07:29:16;;;;;;;15.33;9.97;;;;;;;;;;772800;180;935737;-69
2023/12/13 07:31:42;;;;;;;20.60;12.47;;;;;;;;;;772004;180;900800;-63
2023/12/13 07:34:08;;;;;;;17.77;12.40;;;;;;;;;;776002;180;918139;-69
2023/12/13 07:36:34;;;;;;;21.10;13.13;;;;;;;;;;775244;180;768708;-69
2023/12/13 07:39:00;;;;;;;21.70;11.37;;;;;;;;;;772220;180;818959;-70
2023/12/13 07:41:26;;;;;;;23.00;12.80;;;;;;;;;;776070;180;918729;-63
2023/12/13 07:43:52;;;;;;;19.87;12.40;;;;;;;;;;774065;180;627714;-63
2023/12/13 07:46:18;;;;;;;27.07;15.70;;;;;;;;;;772097;180;919458;-69
2023/12/13 07:48:43;;;;;;;21.87;13.43;;;;;;;;;;771767;180;919584;-69
2023/12/13 07:51:09;;;;;;;21.63;14.10;;;;;;;;;;777473;180;776444;-71
2023/12/13 07:53:35;;;;;;;26.97;13.53;;;;;;;;;;772732;180;817777;-70
2023/12/13 07:56:01;;;;;;;20.00;12.80;;;;;;;;;;770768;180;917305;-69
2023/12/13 07:58:27;;;;;;;23.20;13.77;;;;;;;;;;781930;179;819305;-63
2023/12/13 08:00:53;;;;;;;27.67;15.20;;;;;;;;;;774212;180;914898;-63
2023/12/13 08:03:19;;;;;;;24.00;13.70;;;;;;;;;;776285;180;734261;-69
2023/12/13 08:05:44;;;;;;;29.17;13.77;;;;;;;;;;765309;181;809826;-63
2023/12/13 08:08:11;;;;;;;26.27;16.83;;;;;;;;;;766917;180;921468;-69
2023/12/13 08:10:37;;;;;;;30.80;17.83;;;;;;;;;;771896;180;918696;-69
2023/12/13 08:13:04;;;;;;;26.73;15.10;;;;;;;;;;770635;178;919639;-68
2023/12/13 08:15:30;;;;;;;36.53;19.03;;;;;;;;;;778840;180;819028;-70
2023/12/13 08:17:56;;;;;;;31.85;18.12;;;;;;;;;;773787;178;918571;-69
2023/12/13 08:20:23;;;;;;;31.43;18.20;;;;;;;;;;773978;180;832154;-69
2023/12/13 08:22:47;;;;;;;27.00;16.60;;;;;;;;;;776956;180;911926;-70
2023/12/13 08:25:13;;;;;;;31.17;17.43;;;;;;;;;;771913;180;822377;-63
2023/12/13 08:27:39;;;;;;;32.57;18.00;;;;;;;;;;765128;179;1019798;-63
2023/12/13 08:30:05;;;;;;;39.83;19.10;;;;;;;;;;769619;177;915983;-69
2023/12/13 08:32:31;;;;;;;17.43;10.90;;;;;;;;;;774559;179;814352;-63
2023/12/13 08:34:57;;;;;;;17.20;8.50;;;;;;;;;;770302;178;918194;-70
2023/12/13 08:37:23;;;;;;;10.27;7.05;;;;;;;;;;768162;180;916484;-69
2023/12/13 08:39:49;;;;;;;13.53;6.20;;;;;;;;;;767078;181;876635;-69
2023/12/13 08:42:15;;;;;;;11.80;6.93;;;;;;;;;;769507;178;921526;-63
2023/12/13 08:44:40;;;;;;;9.73;6.70;;;;;;;;;;774762;180;634359;-69
2023/12/13 08:47:06;;;;;;;13.50;8.67;;;;;;;;;;778813;180;616967;-63
2023/12/13 08:49:32;;;;;;;21.97;8.30;;;;;;;;;;770722;180;817291;-69
2023/12/13 08:51:58;;;;;;;15.73;8.90;;;;;;;;;;771365;180;937626;-63
2023/12/13 08:54:24;;;;;;;18.53;9.67;;;;;;;;;;778177;180;819523;-69
2023/12/13 08:56:50;;;;;;;16.50;9.53;;;;;;;;;;772493;180;892980;-69
2023/12/13 08:59:15;;;;;;;16.97;8.37;;;;;;;;;;774239;180;920531;-69
2023/12/13 09:01:42;;;;;;;16.00;8.03;;;;;;;;;;779056;180;815369;-70
2023/12/13 09:04:07;;;;;;;17.43;9.53;;;;;;;;;;771005;178;916835;-69
2023/12/13 09:06:33;;;;;;;24.93;10.50;;;;;;;;;;772517;180;823481;-64
2023/12/13 09:08:59;;;;;;;22.50;11.80;;;;;;;;;;769242;180;817149;-63
2023/12/13 09:11:25;;;;;;;18.60;10.30;;;;;;;;;;766925;181;909789;-64
2023/12/13 09:13:50;;;;;;;25.07;11.97;;;;;;;;;;773159;179;1020895;-69
2023/12/13 09:16:16;;;;;;;20.33;12.83;;;;;;;;;;774906;178;819369;-69
2023/12/13 09:18:43;;;;;;;28.00;14.30;;;;;;;;;;767677;180;919257;-69
2023/12/13 09:21:09;;;;;;;26.83;13.33;;;;;;;;;;768474;180;938296;-69
2023/12/13 09:23:36;;;;;;;25.60;13.10;;;;;;;;;;776261;179;808407;-64
2023/12/13 09:26:02;;;;;;;24.03;12.37;;;;;;;;;;778747;178;711663;-64
2023/12/13 09:28:29;;;;;;;18.20;11.13;;;;;;;;;;772707;180;875708;-69
2023/12/13 09:30:52;;;;;;;20.43;10.50;;;;;;;;;;772470;179;935324;-64
2023/12/13 09:33:18;;;;;;;19.30;9.70;;;;;;;;;;776257;177;916706;-64
2023/12/13 09:35:44;;;;;;;18.10;9.93;;;;;;;;;;778888;180;915759;-63
2023/12/13 09:38:10;;;;;;;13.80;8.53;;;;;;;;;;772410;178;818986;-70
2023/12/13 09:40:36;;;;;;;15.60;8.90;;;;;;;;;;776237;180;618408;-63
2023/12/13 09:43:02;;;;;;;14.90;9.83;;;;;;;;;;780099;180;637787;-63
2023/12/13 09:45:27;;;;;;;14.57;8.00;;;;;;;;;;776355;180;625230;-63
2023/12/13 09:47:53;;;;;;;14.67;8.57;;;;;;;;;;776269;180;651880;-69
2023/12/13 09:50:19;;;;;;;14.93;8.77;;;;;;;;;;780229;180;628508;-70
2023/12/13 09:52:45;;;;;;;16.00;8.23;;;;;;;;;;776594;180;634155;-69
2023/12/13 09:55:11;;;;;;;12.73;8.33;;;;;;;;;;775248;180;921207;-63
2023/12/13 09:57:37;;;;;;;13.90;8.77;;;;;;;;;;770804;178;1022585;-64
2023/12/13 10:00:03;;;;;;;14.17;8.13;;;;;;;;;;772161;180;824547;-69
2023/12/13 10:02:28;;;;;;;11.97;7.97;;;;;;;;;;761769;180;1022654;-63
2023/12/13 10:04:54;;;;;;;12.43;7.60;;;;;;;;;;772498;178;914617;-64
2023/12/13 10:07:20;;;;;;;9.77;6.33;;;;;;;;;;778144;178;920770;-63
2023/12/13 10:09:46;;;;;;;11.23;7.30;;;;;;;;;;773057;180;870864;-69
2023/12/13 10:12:13;;;;;;;10.90;7.20;;;;;;;;;;774379;180;919717;-64
2023/12/13 10:14:38;;;;;;;12.10;8.00;;;;;;;;;;775675;180;919002;-69
2023/12/13 10:17:04;;;;;;;14.40;8.33;;;;;;;;;;774170;180;913669;-69
2023/12/13 10:19:31;;;;;;;12.60;7.70;;;;;;;;;;771589;179;925771;-70
2023/12/13 10:21:56;;;;;;;12.07;7.33;;;;;;;;;;777804;178;903282;-69
2023/12/13 10:24:23;;;;;;;11.60;6.90;;;;;;;;;;772037;178;946636;-62
2023/12/13 10:26:48;;;;;;;9.90;7.33;;;;;;;;;;772283;180;827154;-70
2023/12/13 10:29:14;;;;;;;10.43;5.70;;;;;;;;;;767067;178;1020156;-68
2023/12/13 10:31:39;;;;;;;8.90;5.33;;;;;;;;;;766266;179;929520;-69
2023/12/13 10:34:05;;;;;;;10.10;6.30;;;;;;;;;;772849;177;801176;-63
2023/12/13 10:36:31;;;;;;;7.40;6.07;;;;;;;;;;773984;180;921284;-63
2023/12/13 10:38:57;;;;;;;7.23;4.40;;;;;;;;;;777554;177;805711;-69
2023/12/13 10:41:23;;;;;;;9.23;5.90;;;;;;;;;;771697;178;913343;-63
2023/12/13 10:43:49;;;;;;;8.07;5.63;;;;;;;;;;771004;178;914256;-69
2023/12/13 10:46:15;;;;;;;7.30;4.63;;;;;;;;;;774545;180;744078;-69
2023/12/13 10:48:40;;;;;;;6.97;4.50;;;;;;;;;;764460;181;816790;-69
2023/12/13 10:51:08;;;;;;;5.50;3.87;;;;;;;;;;771242;178;917929;-64
2023/12/13 10:53:34;;;;;;;5.70;3.30;;;;;;;;;;777348;180;641527;-63
2023/12/13 10:56:00;;;;;;;4.73;3.53;;;;;;;;;;776752;179;918911;-69
2023/12/13 10:58:26;;;;;;;4.55;3.12;;;;;;;;;;772044;178;914767;-63
2023/12/13 11:00:51;;;;;;;6.80;3.23;;;;;;;;;;771981;181;917085;-62
2023/12/13 11:03:19;;;;;;;4.93;3.10;;;;;;;;;;776164;179;889599;-62
2023/12/13 11:05:44;;;;;;;7.10;3.50;;;;;;;;;;771941;180;919250;-69
2023/12/13 11:08:16;;;;;;;5.30;3.27;;;;;;;;;;772719;179;869201;-63
2023/12/13 11:10:41;;;;;;;4.77;3.23;;;;;;;;;;773163;177;818858;-69
2023/12/13 11:13:07;;;;;;;5.00;3.50;;;;;;;;;;770026;180;806525;-62
2023/12/13 11:15:32;;;;;;;5.33;3.83;;;;;;;;;;772127;180;744463;-62
2023/12/13 11:18:00;;;;;;;5.00;3.93;;;;;;;;;;771904;180;815380;-69
2023/12/13 11:20:24;;;;;;;4.27;3.57;;;;;;;;;;778426;178;809573;-69
2023/12/13 11:22:50;;;;;;;5.63;3.80;;;;;;;;;;771401;180;919800;-69
2023/12/13 11:25:16;;;;;;;5.03;3.70;;;;;;;;;;773165;180;803879;-69
2023/12/13 11:27:46;;;;;;;5.30;4.27;;;;;;;;;;777181;180;920508;-69
2023/12/13 11:30:13;;;;;;;6.47;4.40;;;;;;;;;;771032;180;940822;-62
2023/12/13 11:32:39;;;;;;;8.37;5.17;;;;;;;;;;774343;179;860518;-69
2023/12/13 11:35:11;;;;;;;4.97;3.67;;;;;;;;;;773305;180;811667;-69
2023/12/13 11:37:36;;;;;;;5.47;3.87;;;;;;;;;;777531;180;816727;-69
2023/12/13 11:40:02;;;;;;;5.17;3.23;;;;;;;;;;773136;180;897987;-62
2023/12/13 11:42:28;;;;;;;4.33;3.40;;;;;;;;;;771674;177;934370;-69
2023/12/13 11:44:54;;;;;;;7.10;3.83;;;;;;;;;;779215;178;900126;-69
2023/12/13 11:47:20;;;;;;;6.03;3.63;;;;;;;;;;763354;180;918942;-70
2023/12/13 11:49:46;;;;;;;8.63;4.80;;;;;;;;;;763102;181;911231;-70
2023/12/13 11:52:12;;;;;;;5.50;4.03;;;;;;;;;;763949;180;825366;-65
2023/12/13 11:54:39;;;;;;;5.50;3.43;;;;;;;;;;772149;180;914613;-69
2023/12/13 11:57:10;;;;;;;4.20;3.03;;;;;;;;;;763970;180;918579;-70
2023/12/13 11:59:36;;;;;;;3.77;2.50;;;;;;;;;;768458;180;813634;-62
2023/12/13 12:02:02;;;;;;;4.43;2.77;;;;;;;;;;767992;180;918801;-69
2023/12/13 12:04:28;;;;;;;5.10;3.37;;;;;;;;;;761210;180;1011785;-62
2023/12/13 12:06:55;;;;;;;5.27;3.40;;;;;;;;;;764767;180;895476;-70
2023/12/13 12:09:21;;;;;;;3.93;2.60;;;;;;;;;;770466;180;817224;-62
2023/12/13 12:11:46;;;;;;;6.57;3.70;;;;;;;;;;767537;179;715714;-62
2023/12/13 12:14:12;;;;;;;5.10;3.33;;;;;;;;;;765116;180;889690;-62
2023/12/13 12:16:38;;;;;;;5.80;3.37;;;;;;;;;;765869;180;805418;-62
2023/12/13 12:19:04;;;;;;;6.03;3.37;;;;;;;;;;771183;180;849444;-62
2023/12/13 12:21:32;;;;;;;4.93;3.30;;;;;;;;;;766970;180;913170;-62
2023/12/13 12:23:55;;;;;;;9.77;5.03;;;;;;;;;;765301;181;915774;-70
2023/12/13 12:26:21;;;;;;;6.13;3.60;;;;;;;;;;772115;180;627166;-63
2023/12/13 12:28:47;;;;;;;7.53;4.63;;;;;;;;;;771017;181;621436;-69
2023/12/13 12:31:13;;;;;;;8.07;5.80;;;;;;;;;;770285;180;630322;-62
2023/12/13 12:33:39;;;;;;;12.37;6.43;;;;;;;;;;766847;181;714196;-69
2023/12/13 12:36:05;;;;;;;7.55;4.57;;;;;;;;;;775121;181;812189;-70
2023/12/13 12:38:31;;;;;;;6.07;4.60;;;;;;;;;;775536;181;645915;-62
2023/12/13 12:40:56;;;;;;;6.30;4.27;;;;;;;;;;772475;180;631294;-69
2023/12/13 12:43:23;;;;;;;8.13;5.57;;;;;;;;;;780380;180;614355;-62
2023/12/13 12:45:48;;;;;;;8.13;5.77;;;;;;;;;;778738;177;816684;-62
2023/12/13 12:48:14;;;;;;;9.70;7.03;;;;;;;;;;774015;180;919052;-63
2023/12/13 12:50:40;;;;;;;8.40;6.10;;;;;;;;;;778027;180;816654;-62
2023/12/13 12:53:06;;;;;;;9.00;6.35;;;;;;;;;;777248;177;820105;-62
2023/12/13 12:55:32;;;;;;;9.33;6.33;;;;;;;;;;773332;177;915968;-70
2023/12/13 12:57:57;;;;;;;9.20;5.63;;;;;;;;;;778482;180;917351;-69
2023/12/13 13:00:23;;;;;;;8.37;5.47;;;;;;;;;;769978;180;922138;-62
2023/12/13 13:02:49;;;;;;;9.17;5.77;;;;;;;;;;768783;181;919157;-63
2023/12/13 13:05:15;;;;;;;8.87;6.13;;;;;;;;;;769222;180;922052;-62
2023/12/13 13:07:41;;;;;;;8.77;6.30;;;;;;;;;;777286;180;917495;-62
2023/12/13 13:10:10;;;;;;;10.40;6.40;;;;;;;;;;773699;178;903464;-62
2023/12/13 13:12:33;;;;;;;8.97;6.13;;;;;;;;;;773344;180;920698;-69
2023/12/13 13:14:59;;;;;;;10.23;5.93;;;;;;;;;;773131;180;800993;-62
2023/12/13 13:17:30;;;;;;;11.83;6.93;;;;;;;;;;773526;180;919166;-69
2023/12/13 13:19:51;;;;;;;11.10;6.67;;;;;;;;;;770365;180;921368;-69
2023/12/13 13:22:16;;;;;;;10.32;7.22;;;;;;;;;;776480;180;918899;-69
2023/12/13 13:24:43;;;;;;;11.47;7.30;;;;;;;;;;770831;180;917659;-69
2023/12/13 13:27:08;;;;;;;12.47;7.43;;;;;;;;;;775311;177;893228;-64
2023/12/13 13:29:34;;;;;;;11.77;6.57;;;;;;;;;;770535;179;918379;-69
2023/12/13 13:32:00;;;;;;;12.23;8.23;;;;;;;;;;781006;180;918723;-69
2023/12/13 13:34:26;;;;;;;13.80;8.57;;;;;;;;;;774873;180;916008;-62
2023/12/13 13:36:51;;;;;;;13.80;8.97;;;;;;;;;;773681;180;919359;-63
2023/12/13 13:39:18;;;;;;;13.70;9.70;;;;;;;;;;776684;180;859772;-62
2023/12/13 13:41:43;;;;;;;14.77;9.30;;;;;;;;;;767387;180;920701;-62
2023/12/13 13:44:09;;;;;;;14.70;9.97;;;;;;;;;;772513;180;918421;-63
2023/12/13 13:46:35;;;;;;;12.00;8.57;;;;;;;;;;778037;181;916387;-69
2023/12/13 13:49:01;;;;;;;11.90;8.40;;;;;;;;;;769228;177;921548;-62
2023/12/13 13:51:28;;;;;;;14.33;9.87;;;;;;;;;;773746;177;919496;-62
2023/12/13 13:53:52;;;;;;;15.10;8.80;;;;;;;;;;762971;184;815291;-62
2023/12/13 13:56:18;;;;;;;16.17;10.17;;;;;;;;;;764730;181;906237;-70
2023/12/13 13:58:46;;;;;;;18.10;11.43;;;;;;;;;;774361;177;911924;-62
2023/12/13 14:01:11;;;;;;;17.60;10.43;;;;;;;;;;771526;180;919292;-70
2023/12/13 14:03:37;;;;;;;15.90;10.02;;;;;;;;;;778006;180;927564;-69
2023/12/13 14:06:02;;;;;;;16.63;10.53;;;;;;;;;;765113;180;918955;-69
2023/12/13 14:08:28;;;;;;;14.02;9.25;;;;;;;;;;770994;180;919325;-62
2023/12/13 14:10:54;;;;;;;15.37;9.53;;;;;;;;;;779116;177;892767;-69
2023/12/13 14:13:20;;;;;;;10.60;7.90;;;;;;;;;;771511;180;919575;-70